Raymond, MT

1:19 PM MDT on August 30, 2015 (GMT -0600)
Crosby | | Change Station
CLOSE
Current Station
Airport
Location: Crosby,
Elevation: 1949 ft
Nearby Weather Stations

Elev 1949 ft 48.93 °N, 103.30 °W | Updated 24 minutes ago

Partly Cloudy
Partly Cloudy
81 °F
Feels Like 81 °F
N
18
Wind Variable Wind from NNW
Gusts 23 mph

Today
High -- | Low -- °F
--% Chance of Precip.
Yesterday
High -- | Low -- °F
Precip. -- in
6:12 AM 7:44 PM
Full, 98% visible
Pressure 29.69 in
Visibility 4.0 miles
Clouds Clear
Dew Point 52 °F
Humidity 37%
Rainfall 0.00 in
Snow Depth Not available.
UV 8 out of 12
Pollen 9.90 out of 12
Air Quality Not available.
Flu Activity Not available.
METAR KD50 301855Z AUTO 33016G20KT 4SM HZ CLR 27/11 A2969 RMK AO2
Pressure 29.69 in
Visibility 4.0 miles
Clouds Clear
Dew Point 52 °F
Humidity 37%
Rainfall 0.00 in
Snow Depth Not available.
UV 8 out of 12
Pollen 9.90 out of 12
Air Quality Not available.
Flu Activity Not available.
METAR KD50 301855Z AUTO 33016G20KT 4SM HZ CLR 27/11 A2969 RMK AO2

10-Day Weather Forecast

×

Almanac

Astronomy

Aug. 30, 2015 Rise Set
Actual Time
Civil Twilight
Nautical Twilight
Astronomical Twilight
Moon
Length of Visible Light
Length of Day
Tomorrow will be .
, % of the Moon is Illuminated

Today's Extremes

State Highs State Lows

Community

WunderPhotos

Upload Photos

1,851,036 photos uploaded!

WunderBlogs® & News

Nearby

Air Quality

  Air Quality AQ Index Pollutant
Not available.

Snow Depth

Station Depth Elevation

Earthquake Activity

City Distance Mag. Time & Date
Minimum magnitude displayed is 2.5.

Coastal Water Temperatures

Place Temperature

Stations

Nearby Weather Stations

Station Location Temp. Windchill Dew Point Humidity Wind Precip. Elev Updated Type